Time;durP1;ratioP1;P1;durP2;ratioP2;P2;SDS_P1;SDS_P2;PMS_P1;PMS_P2;Temp;Humidity;BMP_temperature;BMP_pressure;BME280_temperature;BME280_humidity;BME280_pressure;Samples;Min_cycle;Max_cycle;Signal;HPM_P1;HPM_P2
2021/12/02 00:02:10;;;;;;;5.90;3.33;;;;;;;-2.09;100.00;100260.78;1643990;85;21134;-81
2021/12/02 00:04:37;;;;;;;7.72;3.25;;;;;;;-2.09;100.00;100265.46;1643657;85;21046;-83
2021/12/02 00:07:07;;;;;;;12.40;3.87;;;;;;;-2.06;100.00;100262.80;1644204;85;21476;-83
2021/12/02 00:09:36;;;;;;;7.17;3.50;;;;;;;-2.02;100.00;100269.11;1644280;85;21043;-82
2021/12/02 00:12:05;;;;;;;4.25;3.02;;;;;;;-1.99;100.00;100266.03;1644563;86;21093;-83
2021/12/02 00:14:44;;;;;;;9.43;3.52;;;;;;;-1.97;100.00;100265.55;1644372;85;21619;-88
2021/12/02 00:17:27;;;;;;;5.15;3.17;;;;;;;-1.98;100.00;100262.60;1623960;85;21083;-84
2021/12/02 00:23:07;;;;;;;6.50;3.27;;;;;;;-2.01;100.00;100269.51;1644179;85;21034;-82
2021/12/02 00:25:34;;;;;;;3.12;2.55;;;;;;;-2.01;100.00;100270.78;1644177;85;21134;-81
2021/12/02 00:28:02;;;;;;;5.90;3.40;;;;;;;-2.03;100.00;100281.02;1637797;86;21135;-82
2021/12/02 00:30:29;;;;;;;4.75;3.30;;;;;;;-2.06;100.00;100283.67;1641132;85;21196;-83
2021/12/02 00:32:58;;;;;;;8.10;3.15;;;;;;;-2.07;100.00;100286.64;1643979;85;21500;-81
2021/12/02 00:35:27;;;;;;;4.95;3.10;;;;;;;-2.04;100.00;100287.45;1643875;85;21050;-82
2021/12/02 00:37:56;;;;;;;7.10;2.70;;;;;;;-2.05;100.00;100287.90;1644167;85;21042;-81
2021/12/02 00:40:23;;;;;;;4.10;3.05;;;;;;;-2.04;100.00;100294.65;1624668;86;21136;-81
2021/12/02 00:42:53;;;;;;;3.80;2.90;;;;;;;-2.04;100.00;100301.03;1643416;85;21090;-82
2021/12/02 00:45:20;;;;;;;3.65;2.70;;;;;;;-2.03;100.00;100304.44;1644083;85;21109;-89
2021/12/02 00:47:48;;;;;;;3.80;2.75;;;;;;;-2.05;100.00;100309.59;1651351;84;21113;-89
2021/12/02 00:50:18;;;;;;;4.42;2.80;;;;;;;-2.06;100.00;100306.64;1660185;84;21113;-82
2021/12/02 00:52:46;;;;;;;4.03;2.58;;;;;;;-2.06;100.00;100310.47;1660556;84;21140;-83
2021/12/02 00:55:15;;;;;;;4.17;3.00;;;;;;;-2.07;100.00;100315.98;1660365;84;21053;-84
2021/12/02 00:57:44;;;;;;;3.40;2.72;;;;;;;-2.10;100.00;100313.54;1660823;84;21125;-83
2021/12/02 01:00:14;;;;;;;3.35;2.70;;;;;;;-2.12;100.00;100319.54;1647302;84;21098;-82
2021/12/02 01:02:43;;;;;;;2.70;2.20;;;;;;;-2.16;100.00;100323.06;1641565;85;21057;-82
2021/12/02 01:05:10;;;;;;;3.83;2.67;;;;;;;-2.21;100.00;100329.56;1660294;84;21829;-82
2021/12/02 01:07:37;;;;;;;2.85;2.33;;;;;;;-2.22;100.00;100328.74;1660398;84;21065;-83
2021/12/02 01:10:05;;;;;;;4.80;2.55;;;;;;;-2.20;100.00;100325.31;1660579;84;21121;-81
2021/12/02 01:12:37;;;;;;;4.35;2.92;;;;;;;-2.19;100.00;100335.89;1660774;84;21113;-82
2021/12/02 01:15:06;;;;;;;7.75;3.22;;;;;;;-2.20;100.00;100334.25;1660465;84;21148;-84
2021/12/02 01:17:37;;;;;;;3.20;2.80;;;;;;;-2.22;100.00;100335.13;1660344;84;21101;-82
2021/12/02 01:20:05;;;;;;;3.05;2.47;;;;;;;-2.24;100.00;100339.42;1660624;84;21081;-81
2021/12/02 01:22:37;;;;;;;3.65;2.55;;;;;;;-2.26;100.00;100340.34;1659675;84;21571;-82
2021/12/02 01:25:06;;;;;;;7.92;2.60;;;;;;;-2.26;100.00;100336.06;1657924;86;21046;-83
2021/12/02 01:27:36;;;;;;;7.15;2.25;;;;;;;-2.21;100.00;100332.12;1660655;84;21053;-82
2021/12/02 01:30:05;;;;;;;5.62;2.60;;;;;;;-2.16;100.00;100344.30;1660686;84;22036;-83
2021/12/02 01:32:34;;;;;;;7.90;3.08;;;;;;;-2.12;100.00;100340.80;1660063;84;21085;-82
2021/12/02 01:35:05;;;;;;;6.00;3.35;;;;;;;-2.13;100.00;100345.51;1660624;84;21109;-88
2021/12/02 01:37:34;;;;;;;10.13;3.27;;;;;;;-2.13;100.00;100348.52;1660336;85;21081;-82
2021/12/02 01:40:01;;;;;;;4.15;2.45;;;;;;;-2.13;100.00;100358.72;1641681;84;21104;-82
2021/12/02 01:42:35;;;;;;;8.73;2.60;;;;;;;-2.12;100.00;100359.94;1660213;84;21238;-82
2021/12/02 01:45:07;;;;;;;8.53;2.75;;;;;;;-2.09;100.00;100363.70;1660050;84;21137;-81
2021/12/02 01:47:37;;;;;;;4.28;3.17;;;;;;;-2.06;100.00;100361.50;1660575;84;21066;-82
2021/12/02 01:50:06;;;;;;;3.92;2.70;;;;;;;-2.06;100.00;100348.73;1660511;84;21529;-82
2021/12/02 01:52:34;;;;;;;4.78;3.10;;;;;;;-2.04;100.00;100352.06;1657308;84;21834;-82
2021/12/02 01:55:08;;;;;;;8.05;3.65;;;;;;;-2.08;100.00;100352.59;1641527;86;21622;-82
2021/12/02 01:57:44;;;;;;;6.30;3.12;;;;;;;-2.09;100.00;100355.19;1656740;84;21031;-82
2021/12/02 02:00:17;;;;;;;3.72;2.80;;;;;;;-2.11;100.00;100360.77;1649720;85;21672;-82
2021/12/02 02:02:44;;;;;;;4.62;2.87;;;;;;;-2.10;100.00;100362.44;1654690;86;21097;-81
2021/12/02 02:05:16;;;;;;;5.35;3.20;;;;;;;-2.09;100.00;100361.15;1654753;86;21045;-81
2021/12/02 02:07:57;;;;;;;6.35;5.17;;;;;;;-2.08;100.00;100355.59;1655045;85;21182;-81
2021/12/02 02:10:25;;;;;;;34.15;26.40;;;;;;;-2.05;100.00;100364.45;1654781;85;27371;-83
2021/12/02 02:12:58;;;;;;;36.08;27.45;;;;;;;-2.01;100.00;100353.72;1654560;85;21061;-81
2021/12/02 02:15:26;;;;;;;25.32;17.48;;;;;;;-1.99;100.00;100364.28;1651532;85;21078;-82
2021/12/02 02:17:58;;;;;;;25.43;18.62;;;;;;;-1.98;100.00;100363.41;1654959;86;21050;-82
2021/12/02 02:20:54;;;;;;;36.42;26.97;;;;;;;-1.97;100.00;100372.73;1651972;86;21184;-83
2021/12/02 02:23:18;;;;;;;40.05;25.75;;;;;;;-1.97;100.00;100364.23;1651747;85;21065;-82
2021/12/02 02:25:46;;;;;;;32.35;23.27;;;;;;;-1.93;100.00;100367.11;1655169;84;21145;-81
2021/12/02 02:28:15;;;;;;;38.90;27.15;;;;;;;-1.89;100.00;100367.41;1654984;86;21053;-88
2021/12/02 02:30:43;;;;;;;33.55;23.77;;;;;;;-1.84;100.00;100366.02;1640161;84;20998;-83
2021/12/02 02:33:13;;;;;;;39.45;26.75;;;;;;;-1.80;100.00;100368.86;1654727;86;21007;-82
2021/12/02 02:35:43;;;;;;;34.67;23.42;;;;;;;-1.76;100.00;100375.57;1654813;86;21100;-81
2021/12/02 02:38:10;;;;;;;26.07;18.17;;;;;;;-1.73;100.00;100375.50;1654934;85;21038;-82
2021/12/02 02:40:41;;;;;;;24.15;16.25;;;;;;;-1.72;100.00;100375.87;1655089;85;21053;-81
2021/12/02 02:43:09;;;;;;;21.30;14.63;;;;;;;-1.71;100.00;100381.38;1655371;84;21077;-82
2021/12/02 02:45:39;;;;;;;16.62;12.18;;;;;;;-1.65;100.00;100382.92;1661017;84;21136;-82
2021/12/02 02:48:06;;;;;;;25.60;13.20;;;;;;;-1.56;100.00;100384.41;1648926;84;21105;-81
2021/12/02 02:50:36;;;;;;;19.20;12.20;;;;;;;-1.49;100.00;100376.95;1644033;85;21082;-82
2021/12/02 02:53:11;;;;;;;14.23;10.25;;;;;;;-1.43;100.00;100378.05;1644042;87;21069;-81
2021/12/02 02:55:41;;;;;;;17.90;11.95;;;;;;;-1.39;100.00;100383.45;1642509;85;21074;-82
2021/12/02 02:58:25;;;;;;;14.73;10.45;;;;;;;-1.38;100.00;100378.74;1643883;85;21101;-82
2021/12/02 03:00:53;;;;;;;14.50;9.78;;;;;;;-1.38;100.00;100375.36;1640672;85;21082;-81
2021/12/02 03:06:03;;;;;;;9.83;7.55;;;;;;;-1.27;100.00;100380.98;1640492;85;21083;-81
2021/12/02 03:08:19;;;;;;;10.63;7.12;;;;;;;-1.27;100.00;100381.83;1624123;87;21062;-82
2021/12/02 03:10:50;;;;;;;10.60;5.80;;;;;;;-1.35;100.00;100368.87;1641584;85;21179;-81
2021/12/02 03:13:22;;;;;;;9.08;6.17;;;;;;;-1.43;100.00;100370.39;1641367;87;21086;-81
2021/12/02 03:18:32;;;;;;;7.55;5.37;;;;;;;-1.60;100.00;100373.41;1644313;85;21654;-81
2021/12/02 03:20:59;;;;;;;15.05;4.92;;;;;;;-1.75;100.00;100369.59;1643957;86;21054;-82
2021/12/02 03:23:27;;;;;;;11.05;5.92;;;;;;;-1.82;100.00;100372.74;1624812;87;21105;-81
2021/12/02 03:25:54;;;;;;;8.45;5.60;;;;;;;-1.84;100.00;100368.56;1618336;87;21153;-80
2021/12/02 03:28:21;;;;;;;10.00;5.50;;;;;;;-1.98;100.00;100372.34;1623350;86;21666;-81
2021/12/02 03:30:48;;;;;;;13.78;4.90;;;;;;;-2.10;100.00;100379.03;1643720;85;21031;-81
2021/12/02 03:33:15;;;;;;;9.95;4.80;;;;;;;-2.19;100.00;100375.02;1627007;86;21400;-81
2021/12/02 03:35:42;;;;;;;10.28;5.10;;;;;;;-2.23;100.00;100386.16;1626774;86;21932;-80
2021/12/02 03:38:09;;;;;;;9.58;4.60;;;;;;;-2.29;100.00;100386.33;1644061;85;21096;-82
2021/12/02 03:40:37;;;;;;;8.58;4.22;;;;;;;-2.48;100.00;100385.95;1643982;85;21560;-81
2021/12/02 03:43:04;;;;;;;5.47;4.17;;;;;;;-2.67;100.00;100393.21;1627170;85;21095;-82
2021/12/02 03:45:37;;;;;;;7.72;4.08;;;;;;;-2.78;100.00;100400.67;1644047;85;22345;-81
2021/12/02 03:48:03;;;;;;;7.10;4.25;;;;;;;-2.87;100.00;100400.45;1622808;84;22289;-85
2021/12/02 03:50:30;;;;;;;6.47;4.17;;;;;;;-2.96;100.00;100407.03;1670348;84;21609;-82
2021/12/02 03:52:57;;;;;;;6.45;4.47;;;;;;;-3.05;100.00;100409.77;1669709;84;21052;-82
2021/12/02 03:55:25;;;;;;;7.00;4.80;;;;;;;-3.09;100.00;100408.18;1670475;84;21080;-81
2021/12/02 03:57:52;;;;;;;9.00;5.12;;;;;;;-3.08;100.00;100408.14;1668321;84;21602;-80
2021/12/02 04:00:19;;;;;;;9.40;5.35;;;;;;;-3.14;100.00;100411.24;1670583;84;21230;-83
2021/12/02 04:02:46;;;;;;;11.25;5.95;;;;;;;-3.28;100.00;100425.12;1654510;84;21102;-82
2021/12/02 04:05:17;;;;;;;9.83;5.42;;;;;;;-3.37;100.00;100425.30;1670585;84;21096;-83
2021/12/02 04:07:44;;;;;;;10.05;5.55;;;;;;;-3.47;100.00;100430.17;1670893;84;21783;-80
2021/12/02 04:10:12;;;;;;;9.78;6.08;;;;;;;-3.55;100.00;100423.52;1670660;84;21052;-81
2021/12/02 04:15:24;;;;;;;12.30;7.08;;;;;;;-3.60;100.00;100432.11;1643274;85;21025;-82
2021/12/02 04:17:46;;;;;;;12.43;7.65;;;;;;;-3.65;100.00;100432.23;1643693;84;21997;-90
2021/12/02 04:20:18;;;;;;;11.73;7.33;;;;;;;-3.70;100.00;100436.55;1670335;84;21111;-84
2021/12/02 04:22:46;;;;;;;14.35;8.10;;;;;;;-3.76;100.00;100444.31;1670980;84;21115;-84
2021/12/02 04:25:14;;;;;;;16.05;7.40;;;;;;;-3.85;100.00;100438.52;1670360;85;21127;-82
2021/12/02 04:27:41;;;;;;;12.10;7.33;;;;;;;-3.87;100.00;100437.70;1670482;84;21040;-84
2021/12/02 04:30:13;;;;;;;14.58;8.55;;;;;;;-3.81;100.00;100437.61;1662889;84;21063;-84
2021/12/02 04:32:40;;;;;;;16.73;8.83;;;;;;;-3.79;100.00;100442.66;1670015;84;21135;-85
2021/12/02 04:35:09;;;;;;;28.57;13.55;;;;;;;-3.84;100.00;100435.53;1670678;84;21120;-85
2021/12/02 04:37:36;;;;;;;25.35;12.65;;;;;;;-3.93;100.00;100441.64;1660924;84;22008;-85
2021/12/02 04:40:06;;;;;;;19.82;9.70;;;;;;;-4.00;100.00;100445.16;1591364;88;21446;-85
2021/12/02 04:42:34;;;;;;;27.15;10.18;;;;;;;-4.06;100.00;100446.09;1591711;88;21071;-84
2021/12/02 04:45:02;;;;;;;25.15;10.88;;;;;;;-4.13;100.00;100447.89;1601762;88;21047;-84
2021/12/02 04:47:29;;;;;;;20.60;8.93;;;;;;;-4.22;100.00;100453.16;1650406;85;21232;-84
2021/12/02 04:49:56;;;;;;;15.10;8.03;;;;;;;-4.30;100.00;100458.36;1643974;85;21809;-83
2021/12/02 04:52:24;;;;;;;17.62;8.65;;;;;;;-4.31;100.00;100464.30;1643922;85;38673;-82
2021/12/02 04:54:51;;;;;;;15.10;8.68;;;;;;;-4.33;100.00;100465.20;1643926;85;22620;-82
2021/12/02 04:57:18;;;;;;;15.30;8.00;;;;;;;-4.36;100.00;100465.23;1644052;85;21035;-81
2021/12/02 04:59:45;;;;;;;15.35;8.45;;;;;;;-4.41;100.00;100453.03;1604900;86;21081;-81
2021/12/02 05:02:12;;;;;;;22.45;8.33;;;;;;;-4.47;100.00;100436.17;1638443;87;22248;-80
2021/12/02 05:04:39;;;;;;;14.07;7.55;;;;;;;-4.52;100.00;100449.39;1628433;86;22030;-83
2021/12/02 05:07:07;;;;;;;17.27;8.83;;;;;;;-4.51;100.00;100459.97;1628182;86;21057;-82
2021/12/02 05:09:34;;;;;;;14.78;7.97;;;;;;;-4.49;100.00;100461.63;1628143;86;21113;-83
2021/12/02 05:12:01;;;;;;;13.95;8.15;;;;;;;-4.49;100.00;100465.44;1627956;86;21050;-87
2021/12/02 05:14:28;;;;;;;16.32;8.58;;;;;;;-4.46;100.00;100481.06;1628081;86;21125;-89
2021/12/02 05:16:55;;;;;;;16.82;9.40;;;;;;;-4.44;100.00;100476.36;1628208;86;21156;-87
2021/12/02 05:19:22;;;;;;;16.32;10.40;;;;;;;-4.42;100.00;100471.69;1628504;86;21042;-86
2021/12/02 05:21:49;;;;;;;18.02;10.08;;;;;;;-4.41;100.00;100469.56;1628399;86;21567;-88
2021/12/02 05:24:16;;;;;;;20.23;11.73;;;;;;;-4.41;100.00;100477.19;1628607;86;21061;-85
2021/12/02 05:26:43;;;;;;;20.17;10.88;;;;;;;-4.40;100.00;100478.88;1628212;86;21458;-83
2021/12/02 05:29:10;;;;;;;18.52;8.93;;;;;;;-4.38;100.00;100478.42;1628448;86;21133;-82
2021/12/02 05:31:37;;;;;;;21.90;8.73;;;;;;;-4.34;100.00;100463.52;1609707;87;21146;-84
2021/12/02 05:34:05;;;;;;;15.78;8.30;;;;;;;-4.26;100.00;100465.95;1628316;86;21069;-85
2021/12/02 05:36:36;;;;;;;18.82;10.23;;;;;;;-4.15;100.00;100472.53;1628610;86;21563;-82
2021/12/02 05:39:03;;;;;;;17.32;8.88;;;;;;;-4.05;100.00;100472.39;1610131;86;21483;-84
2021/12/02 05:41:32;;;;;;;18.42;8.13;;;;;;;-4.01;100.00;100479.09;1628124;86;21077;-83
2021/12/02 05:44:00;;;;;;;12.63;7.60;;;;;;;-3.95;100.00;100489.16;1622825;87;21589;-82
2021/12/02 05:46:28;;;;;;;12.10;7.00;;;;;;;-3.86;100.00;100487.73;1627456;86;21053;-83
2021/12/02 05:48:55;;;;;;;12.85;7.58;;;;;;;-3.74;100.00;100488.39;1643705;84;21121;-82
2021/12/02 05:51:22;;;;;;;11.93;7.10;;;;;;;-3.65;100.00;100480.59;1639159;85;21786;-83
2021/12/02 05:53:51;;;;;;;9.55;6.25;;;;;;;-3.56;100.00;100482.94;1656960;84;21072;-84
2021/12/02 05:56:18;;;;;;;11.12;6.65;;;;;;;-3.46;100.00;100490.41;1655430;84;22103;-83
2021/12/02 05:58:45;;;;;;;12.15;6.53;;;;;;;-3.37;100.00;100487.28;1655638;84;21528;-82
2021/12/02 06:01:13;;;;;;;10.65;6.75;;;;;;;-3.29;100.00;100483.73;1654209;84;21122;-85
2021/12/02 06:03:40;;;;;;;13.83;6.42;;;;;;;-3.19;100.00;100480.11;1655045;85;21138;-84
2021/12/02 06:06:07;;;;;;;8.45;6.45;;;;;;;-3.11;100.00;100485.06;1654912;86;21086;-84
2021/12/02 06:08:36;;;;;;;11.63;6.55;;;;;;;-3.06;100.00;100487.93;1654987;86;21007;-81
2021/12/02 06:11:05;;;;;;;10.45;6.55;;;;;;;-2.97;100.00;100494.98;1596486;87;21619;-83
2021/12/02 06:13:33;;;;;;;8.65;5.75;;;;;;;-2.90;100.00;100502.45;1652014;85;21145;-84
2021/12/02 06:16:01;;;;;;;9.38;6.47;;;;;;;-2.81;100.00;100499.30;1652931;85;21180;-83
2021/12/02 06:18:29;;;;;;;8.73;6.00;;;;;;;-2.75;100.00;100497.47;1656319;85;21216;-81
2021/12/02 06:20:56;;;;;;;8.23;6.20;;;;;;;-2.71;100.00;100500.34;1655878;85;21109;-83
2021/12/02 06:23:24;;;;;;;8.00;5.87;;;;;;;-2.67;100.00;100502.83;1654618;85;21161;-83
2021/12/02 06:25:51;;;;;;;9.43;5.85;;;;;;;-2.63;100.00;100502.73;1655116;86;21065;-83
2021/12/02 06:28:18;;;;;;;8.33;6.12;;;;;;;-2.58;100.00;100513.66;1635844;86;21840;-82
2021/12/02 06:30:46;;;;;;;10.23;7.22;;;;;;;-2.50;100.00;100515.20;1655141;84;21057;-83
2021/12/02 06:33:14;;;;;;;9.45;6.30;;;;;;;-2.46;100.00;100518.09;1619390;87;21655;-86
2021/12/02 06:35:42;;;;;;;8.45;6.37;;;;;;;-2.43;100.00;100520.14;1620314;87;21576;-87
2021/12/02 06:38:10;;;;;;;7.92;5.78;;;;;;;-2.39;100.00;100517.91;1655148;85;21581;-82
2021/12/02 06:40:40;;;;;;;8.83;7.12;;;;;;;-2.33;100.00;100523.76;1655937;85;22038;-82
2021/12/02 06:43:07;;;;;;;8.80;6.50;;;;;;;-2.28;100.00;100526.58;1652622;85;21026;-82
2021/12/02 06:45:34;;;;;;;8.05;6.08;;;;;;;-2.21;100.00;100529.83;1659316;85;21078;-84
2021/12/02 06:48:11;;;;;;;10.68;6.65;;;;;;;-2.17;100.00;100517.42;1661272;84;21032;-82
2021/12/02 06:50:38;;;;;;;10.43;6.37;;;;;;;-2.13;100.00;100514.36;1621339;85;21166;-82
2021/12/02 06:53:06;;;;;;;8.58;6.53;;;;;;;-2.10;100.00;100504.91;1648231;84;21138;-83
2021/12/02 06:55:34;;;;;;;10.60;7.67;;;;;;;-2.08;100.00;100501.04;1651906;85;21069;-82
2021/12/02 06:58:01;;;;;;;11.15;7.42;;;;;;;-2.05;100.00;100509.91;1626584;85;21093;-83
2021/12/02 07:00:30;;;;;;;11.15;7.12;;;;;;;-2.03;100.00;100527.72;1675535;83;21107;-81
2021/12/02 07:02:57;;;;;;;10.82;7.65;;;;;;;-2.00;100.00;100532.77;1672675;84;22269;-82
2021/12/02 07:05:25;;;;;;;10.58;7.92;;;;;;;-1.98;100.00;100530.99;1632303;85;21091;-83
2021/12/02 07:07:53;;;;;;;11.18;7.47;;;;;;;-1.99;100.00;100531.45;1642596;85;21106;-87
2021/12/02 07:10:25;;;;;;;11.65;7.33;;;;;;;-1.99;100.00;100521.66;1669904;84;21600;-87
2021/12/02 07:12:56;;;;;;;9.70;7.45;;;;;;;-1.94;100.00;100530.06;1669198;85;21134;-82
2021/12/02 07:15:31;;;;;;;;;;;;;;;-1.83;100.00;100529.79;1660069;85;21046;-81
2021/12/02 07:17:56;;;;;;;10.00;7.65;;;;;;;-1.71;100.00;100525.64;1661642;85;21100;-83
2021/12/02 07:20:29;;;;;;;12.73;7.53;;;;;;;-1.57;100.00;100524.46;1664384;85;21089;-83
2021/12/02 07:22:58;;;;;;;11.28;7.50;;;;;;;-1.45;100.00;100531.36;1672770;84;21094;-85
2021/12/02 07:25:28;;;;;;;21.55;8.20;;;;;;;-1.29;100.00;100532.23;1670977;85;21060;-81
2021/12/02 07:27:55;;;;;;;29.25;7.70;;;;;;;-0.96;100.00;100537.25;1636454;86;21544;-80
2021/12/02 07:30:24;;;;;;;35.48;9.45;;;;;;;-0.63;100.00;100530.77;1660086;85;21255;-80
2021/12/02 07:32:55;;;;;;;27.58;8.73;;;;;;;-0.36;100.00;100522.69;1655625;85;21090;-80
2021/12/02 07:35:24;;;;;;;19.85;9.18;;;;;;;-0.14;100.00;100526.30;1642268;85;21040;-82
2021/12/02 07:37:56;;;;;;;18.65;8.60;;;;;;;-0.03;100.00;100527.63;1672733;84;21071;-80
2021/12/02 07:40:29;;;;;;;20.02;8.53;;;;;;;0.09;100.00;100531.52;1671041;85;21573;-81
2021/12/02 07:42:58;;;;;;;14.87;9.30;;;;;;;0.15;100.00;100530.48;1666144;85;21130;-80
2021/12/02 07:45:30;;;;;;;12.60;8.88;;;;;;;0.21;100.00;100528.98;1663079;85;21029;-80
2021/12/02 07:47:57;;;;;;;15.98;9.80;;;;;;;0.35;100.00;100537.95;1658970;85;21055;-85
2021/12/02 07:50:24;;;;;;;16.57;10.50;;;;;;;0.41;100.00;100534.72;1651977;85;21041;-85
2021/12/02 07:52:56;;;;;;;18.92;12.45;;;;;;;0.43;100.00;100544.48;1651991;86;21036;-85
2021/12/02 07:55:25;;;;;;;23.57;11.80;;;;;;;0.45;100.00;100552.10;1649643;84;21819;-84
2021/12/02 07:57:53;;;;;;;22.40;12.70;;;;;;;0.52;100.00;100551.00;1640992;85;21052;-84
2021/12/02 08:00:29;;;;;;;29.82;13.70;;;;;;;0.59;100.00;100549.93;1648938;85;20992;-84
2021/12/02 08:02:56;;;;;;;28.27;15.25;;;;;;;0.65;100.00;100542.45;1668173;85;21132;-84
2021/12/02 08:05:27;;;;;;;33.10;16.25;;;;;;;0.75;100.00;100536.58;1668193;84;21536;-85
2021/12/02 08:07:56;;;;;;;30.90;20.25;;;;;;;0.88;100.00;100535.70;1662165;85;21077;-85
2021/12/02 08:10:23;;;;;;;40.20;22.35;;;;;;;0.96;100.00;100527.28;1667664;85;21066;-84
2021/12/02 08:12:52;;;;;;;42.13;26.25;;;;;;;1.10;100.00;100531.87;1656222;85;21073;-85
2021/12/02 08:15:28;;;;;;;41.92;26.75;;;;;;;1.22;100.00;100530.59;1644101;85;21065;-87
2021/12/02 08:17:59;;;;;;;51.55;29.27;;;;;;;1.30;100.00;100530.31;1632823;85;21082;-87
2021/12/02 08:20:28;;;;;;;41.55;27.77;;;;;;;1.43;100.00;100526.38;1628635;87;21159;-88
2021/12/02 08:22:56;;;;;;;41.58;27.05;;;;;;;1.49;100.00;100520.17;1617601;87;21384;-88
2021/12/02 08:25:27;;;;;;;46.55;30.75;;;;;;;1.58;100.00;100517.26;1579754;86;21086;-87
2021/12/02 08:28:00;;;;;;;50.43;31.68;;;;;;;1.68;100.00;100517.72;1668085;84;21023;-87
2021/12/02 08:30:30;;;;;;;49.33;31.35;;;;;;;1.63;100.00;100505.06;1639796;85;21099;-84
2021/12/02 08:32:58;;;;;;;45.67;29.82;;;;;;;1.59;100.00;100508.67;1670120;85;21989;-85
2021/12/02 08:35:28;;;;;;;49.00;31.93;;;;;;;1.52;100.00;100506.78;1662564;85;21015;-86
2021/12/02 08:38:09;;;;;;;51.50;31.97;;;;;;;1.43;100.00;100508.88;1643294;86;21843;-85
2021/12/02 08:40:36;;;;;;;47.30;32.10;;;;;;;1.35;100.00;100503.59;1647613;85;21040;-85
2021/12/02 08:43:07;;;;;;;44.80;31.00;;;;;;;1.34;100.00;100501.92;1613362;86;21056;-86
2021/12/02 08:45:41;;;;;;;46.28;31.42;;;;;;;1.33;100.00;100507.09;1670445;85;21157;-86
2021/12/02 08:48:10;;;;;;;48.48;31.05;;;;;;;1.31;100.00;100507.61;1639168;85;21043;-85
2021/12/02 08:50:39;;;;;;;47.62;29.37;;;;;;;1.24;100.00;100496.28;1607373;86;21159;-85
2021/12/02 08:53:08;;;;;;;40.10;27.13;;;;;;;1.18;100.00;100492.67;1621509;88;21043;-85
2021/12/02 08:55:40;;;;;;;41.18;25.75;;;;;;;1.16;100.00;100490.61;1620037;86;21865;-86
2021/12/02 08:58:09;;;;;;;35.38;25.00;;;;;;;1.19;100.00;100486.66;1633549;86;21131;-86
2021/12/02 09:00:40;;;;;;;34.43;24.10;;;;;;;1.28;100.00;100482.92;1626713;86;21148;-86
2021/12/02 09:03:11;;;;;;;38.35;24.15;;;;;;;1.37;100.00;100480.43;1645978;85;21140;-86
2021/12/02 09:05:41;;;;;;;37.78;26.20;;;;;;;1.42;100.00;100457.98;1586783;88;21161;-85
2021/12/02 09:08:09;;;;;;;36.90;26.50;;;;;;;1.41;100.00;100452.46;1687555;83;21640;-86
2021/12/02 09:10:37;;;;;;;39.00;25.92;;;;;;;1.40;100.00;100450.81;1671407;83;21786;-85
2021/12/02 09:13:08;;;;;;;36.45;25.70;;;;;;;1.43;100.00;100454.98;1660131;84;21046;-84
2021/12/02 09:15:38;;;;;;;43.83;28.38;;;;;;;1.48;100.00;100455.20;1645893;84;21160;-86
2021/12/02 09:18:05;;;;;;;49.48;29.95;;;;;;;1.60;100.00;100457.72;1653160;85;21059;-87
2021/12/02 09:20:34;;;;;;;46.28;29.77;;;;;;;1.76;100.00;100452.78;1645564;85;21081;-87
2021/12/02 09:23:01;;;;;;;40.25;28.62;;;;;;;1.92;100.00;100449.58;1623695;86;21161;-86
2021/12/02 09:25:30;;;;;;;49.70;29.90;;;;;;;2.08;100.00;100445.47;1655207;84;22369;-85
2021/12/02 09:27:58;;;;;;;48.75;29.90;;;;;;;2.25;100.00;100445.20;1663229;84;21078;-86
2021/12/02 09:30:26;;;;;;;45.10;29.63;;;;;;;2.33;100.00;100436.71;1625636;85;21073;-85
2021/12/02 09:32:53;;;;;;;43.70;28.85;;;;;;;2.34;100.00;100439.20;1618838;86;21162;-85
2021/12/02 09:35:26;;;;;;;39.35;28.15;;;;;;;2.33;100.00;100427.25;1641275;84;21136;-85
2021/12/02 09:37:53;;;;;;;38.40;25.85;;;;;;;2.32;100.00;100426.05;1638569;85;21121;-85
2021/12/02 09:40:20;;;;;;;44.55;26.73;;;;;;;2.30;100.00;100411.98;1634825;85;21086;-85
2021/12/02 09:42:47;;;;;;;42.50;27.22;;;;;;;2.28;100.00;100416.81;1596601;88;22585;-84
2021/12/02 09:45:16;;;;;;;45.25;27.77;;;;;;;2.25;100.00;100417.77;1594319;88;21132;-86
2021/12/02 09:47:48;;;;;;;40.60;27.27;;;;;;;2.23;100.00;100413.59;1564979;89;21668;-85
2021/12/02 09:50:27;;;;;;;45.33;28.77;;;;;;;2.19;100.00;100415.46;1619916;86;22259;-84
2021/12/02 09:52:56;;;;;;;40.17;27.62;;;;;;;2.17;100.00;100402.70;1593204;88;21138;-85
2021/12/02 09:57:56;;;;;;;35.70;24.80;;;;;;;2.18;100.00;100404.80;1616916;86;21086;-85
2021/12/02 10:00:36;;;;;;;35.00;24.20;;;;;;;2.17;100.00;100402.70;1615431;87;21127;-85
2021/12/02 10:03:03;;;;;;;37.45;24.18;;;;;;;2.20;100.00;100396.58;1604546;86;21131;-87
2021/12/02 10:05:34;;;;;;;36.50;23.92;;;;;;;2.21;100.00;100388.80;1584907;88;21593;-86
2021/12/02 10:08:06;;;;;;;34.20;23.77;;;;;;;2.25;100.00;100388.67;1650034;85;21125;-84
2021/12/02 10:10:39;;;;;;;35.70;23.55;;;;;;;2.29;100.00;100377.34;1588681;87;21050;-85
2021/12/02 10:13:25;;;;;;;40.48;23.77;;;;;;;2.31;100.00;100378.12;1590920;88;22117;-84
2021/12/02 10:15:52;;;;;;;36.40;23.47;;;;;;;2.34;100.00;100383.13;1600877;86;21123;-85
2021/12/02 10:18:16;;;;;;;38.20;24.23;;;;;;;2.35;100.00;100370.67;1647849;86;21089;-84
2021/12/02 10:20:46;;;;;;;36.55;24.15;;;;;;;2.36;100.00;100366.73;1640601;86;21090;-85
2021/12/02 10:25:59;;;;;;;33.63;23.12;;;;;;;2.43;100.00;100354.45;1641094;85;21068;-84
2021/12/02 10:28:37;;;;;;;33.35;22.35;;;;;;;2.48;100.00;100351.22;1619336;86;21109;-86
2021/12/02 10:31:06;;;;;;;38.00;23.12;;;;;;;2.51;100.00;100342.09;1638318;86;21037;-84
2021/12/02 10:33:51;;;;;;;32.73;20.90;;;;;;;2.53;100.00;100345.87;1667717;84;21157;-84
2021/12/02 10:36:33;;;;;;;28.45;20.48;;;;;;;2.55;100.00;100340.21;1622776;85;21127;-85
2021/12/02 10:39:17;;;;;;;29.25;20.62;;;;;;;2.59;100.00;100337.05;1664821;84;21158;-84
2021/12/02 10:41:47;;;;;;;29.87;20.80;;;;;;;2.63;100.00;100326.98;1642676;85;21547;-85
2021/12/02 10:44:30;;;;;;;29.27;19.95;;;;;;;2.62;100.00;100316.31;1638163;86;21062;-85
2021/12/02 10:47:13;;;;;;;30.68;19.95;;;;;;;2.61;100.00;100307.78;1636033;84;21032;-84
2021/12/02 10:49:54;;;;;;;33.23;19.87;;;;;;;2.58;100.00;100302.77;1637388;84;21166;-85
2021/12/02 10:52:31;;;;;;;29.30;18.92;;;;;;;2.59;100.00;100302.34;1658099;84;21181;-85
2021/12/02 10:55:14;;;;;;;28.20;19.25;;;;;;;2.59;100.00;100298.02;1656452;86;21031;-85
2021/12/02 10:57:53;;;;;;;25.00;17.67;;;;;;;2.60;100.00;100293.26;1661769;83;21594;-85
2021/12/02 11:00:31;;;;;;;26.70;18.42;;;;;;;2.65;100.00;100290.01;1634457;86;21086;-84
2021/12/02 11:03:09;;;;;;;22.90;16.80;;;;;;;2.70;100.00;100278.69;1601707;87;21164;-85
2021/12/02 11:05:46;;;;;;;21.87;16.67;;;;;;;2.76;100.00;100274.53;1638628;85;21946;-85
2021/12/02 11:08:16;;;;;;;22.58;16.20;;;;;;;2.82;100.00;100267.37;1662826;84;21508;-85
2021/12/02 11:10:48;;;;;;;22.40;16.70;;;;;;;2.90;100.00;100264.88;1663790;84;21062;-84
2021/12/02 11:13:24;;;;;;;23.55;16.23;;;;;;;2.95;100.00;100265.47;1671569;85;21062;-85
2021/12/02 11:15:54;;;;;;;21.12;14.35;;;;;;;3.02;100.00;100266.02;1661852;84;21622;-85
2021/12/02 11:18:23;;;;;;;21.10;14.55;;;;;;;3.06;100.00;100259.36;1608126;87;21135;-85
2021/12/02 11:20:59;;;;;;;22.35;15.55;;;;;;;3.12;100.00;100262.91;1619650;87;21039;-84
2021/12/02 11:23:47;;;;;;;18.75;13.38;;;;;;;3.14;100.00;100259.81;1639144;84;21101;-84
2021/12/02 11:26:13;;;;;;;18.12;13.55;;;;;;;3.17;100.00;100251.10;1640373;84;21058;-83
2021/12/02 11:28:43;;;;;;;17.65;13.08;;;;;;;3.18;100.00;100248.91;1662452;85;21619;-85
2021/12/02 11:31:17;;;;;;;25.52;14.15;;;;;;;3.18;100.00;100248.05;1651248;85;21645;-84
2021/12/02 11:33:48;;;;;;;17.30;12.20;;;;;;;3.18;100.00;100241.19;1609378;88;21040;-83
2021/12/02 11:36:31;;;;;;;16.52;11.88;;;;;;;3.20;100.00;100235.95;1613634;87;21073;-84
2021/12/02 11:39:00;;;;;;;15.75;12.40;;;;;;;3.16;100.00;100224.52;1657062;84;21628;-83
2021/12/02 11:41:28;;;;;;;17.25;11.55;;;;;;;3.18;100.00;100225.75;1630948;86;21152;-84